CST,Max TemperatureF,Mean TemperatureF,Min TemperatureF,Max Dew PointF,MeanDew PointF,Min DewpointF,Max Humidity, Mean Humidity, Min Humidity, Max Sea Level PressureIn, Mean Sea Level PressureIn, Min Sea Level PressureIn, Max VisibilityMiles, Mean VisibilityMiles, Min VisibilityMiles, Max Wind SpeedMPH, Mean Wind SpeedMPH, Max Gust SpeedMPH,PrecipitationIn, CloudCover, Events, WindDirDegrees
2012-12-1,84,65,46,55,46,40,83,64,28,30.32,30.28,30.24,10,9,4,4,1,,0.01,1,,193
2012-12-2,87,68,48,58,51,43,81,67,32,30.35,30.28,30.22,10,9,4,6,1,,0.00,2,,215
2012-12-3,84,68,51,57,50,46,83,67,31,30.30,30.25,30.20,10,8,2,10,1,,0.01,2,,177
2012-12-4,87,68,50,59,51,44,83,70,35,30.32,30.26,30.19,10,7,0,8,1,,0.00,3,Rain,173
2012-12-5,91,71,51,56,50,46,83,64,26,30.22,30.14,30.07,10,8,2,7,1,,0.01,2,,150
2012-12-6,82,68,53,58,53,47,80,63,37,30.10,30.06,30.02,10,9,4,10,3,,0.00,4,,78
2012-12-7,77,66,55,56,53,50,80,64,43,30.08,30.02,29.95,10,10,6,9,4,,0.00,6,,77
2012-12-8,79,68,57,64,59,51,88,71,50,30.04,30.00,29.96,10,7,2,8,1,,0.03,7,Rain,187
2012-12-9,82,72,63,63,60,56,88,73,46,30.10,30.03,29.96,10,8,2,8,2,,0.00,5,,174
2012-12-10,80,71,60,66,61,54,88,77,61,29.96,29.85,29.75,10,6,0,13,4,20,0.19,6,Rain,207
2012-12-11,59,52,45,52,43,36,81,69,57,30.16,30.00,29.87,10,10,6,8,5,,0.01,6,Rain,331
2012-12-12,54,50,45,42,38,35,79,64,55,30.22,30.16,30.10,10,10,9,6,2,,0.01,6,Rain,358
2012-12-13,70,57,44,43,40,38,81,62,33,30.33,30.28,30.22,10,10,6,10,3,17,0.00,3,Rain,56
2012-12-14,75,56,37,45,41,34,87,66,31,30.36,30.28,30.16,10,9,5,10,2,,0.00,2,Rain,79
2012-12-15,75,64,52,52,47,44,80,62,32,30.22,30.12,30.04,10,10,10,8,1,,0.00,2,,133
2012-12-16,77,66,55,63,56,48,88,73,48,30.04,29.96,29.84,10,7,0,12,3,21,0.37,7,Rain,191
2012-12-17,79,69,57,63,58,51,90,78,44,29.90,29.82,29.74,10,5,0,10,4,,1.70,7,Rain-Thunderstorm,188
2012-12-18,73,58,42,57,47,34,88,69,26,30.04,29.92,29.80,10,8,1,7,3,,0.01,1,Rain,264
2012-12-19,79,59,39,45,37,34,93,72,27,30.12,30.06,30.02,10,6,0,8,1,,0.01,3,Rain,172
2012-12-20,69,56,43,64,48,28,93,74,45,30.05,29.87,29.72,10,8,0,21,8,32,0.52,4,Fog-Rain,229
2012-12-21,53,45,37,26,17,12,51,36,20,30.25,30.16,30.05,10,10,10,16,8,26,0.00,0,,293
2012-12-22,57,42,28,26,18,11,82,47,17,30.35,30.27,30.24,10,10,10,7,4,,0.00,0,,303
2012-12-23,57,42,28,38,32,25,93,70,39,30.26,30.18,30.06,10,10,10,6,1,,0.00,2,Rain,174
2012-12-24,69,58,48,64,55,38,100,90,61,30.05,29.91,29.85,10,4,0,8,4,16,0.60,6,Fog-Rain-Thunderstorm,193
2012-12-25,61,60,59,61,58,57,100,94,88,29.95,29.92,29.86,8,2,0,10,2,,0.25,8,Fog-Rain-Thunderstorm,97
2012-12-26,,,,,,,,,,,,,,,,,,,,,,
2012-12-27,,,,,,,,,,,,,,,,,,,,,,
2012-12-28,,,,,,,,,,,,,,,,,,,,,,
2012-12-29,,,,,,,,,,,,,,,,,,,,,,
2012-12-30,,,,,,,,,,,,,,,,,,,,,,
2012-12-31,,,,,,,,,,,,,,,,,,,,,,